sensor_id;sensor_type;location;lat;lon;timestamp;P1;durP1;ratioP1;P2;durP2;ratioP2
19260;SDS011;9764;48.114;11.670;2022-12-10T00:01:55;2.55;;;2.35;;
19260;SDS011;9764;48.114;11.670;2022-12-10T00:04:24;3.70;;;2.40;;
19260;SDS011;9764;48.114;11.670;2022-12-10T00:06:52;3.17;;;2.30;;
19260;SDS011;9764;48.114;11.670;2022-12-10T00:09:22;2.40;;;2.20;;
19260;SDS011;9764;48.114;11.670;2022-12-10T00:11:50;2.78;;;2.30;;
19260;SDS011;9764;48.114;11.670;2022-12-10T00:14:18;2.67;;;2.35;;
19260;SDS011;9764;48.114;11.670;2022-12-10T00:16:47;2.42;;;2.22;;
19260;SDS011;9764;48.114;11.670;2022-12-10T00:19:15;2.58;;;2.30;;
19260;SDS011;9764;48.114;11.670;2022-12-10T00:21:43;3.15;;;2.58;;
19260;SDS011;9764;48.114;11.670;2022-12-10T00:24:12;2.63;;;2.38;;
19260;SDS011;9764;48.114;11.670;2022-12-10T00:26:42;2.80;;;2.47;;
19260;SDS011;9764;48.114;11.670;2022-12-10T00:29:12;2.80;;;2.50;;
19260;SDS011;9764;48.114;11.670;2022-12-10T00:31:41;2.85;;;2.60;;
19260;SDS011;9764;48.114;11.670;2022-12-10T00:34:10;2.83;;;2.53;;
19260;SDS011;9764;48.114;11.670;2022-12-10T00:36:40;3.25;;;2.35;;
19260;SDS011;9764;48.114;11.670;2022-12-10T00:39:11;3.55;;;2.40;;
19260;SDS011;9764;48.114;11.670;2022-12-10T00:41:43;2.97;;;2.67;;
19260;SDS011;9764;48.114;11.670;2022-12-10T00:44:15;2.55;;;2.25;;
19260;SDS011;9764;48.114;11.670;2022-12-10T00:46:43;2.92;;;2.47;;
19260;SDS011;9764;48.114;11.670;2022-12-10T00:49:12;3.42;;;2.60;;
19260;SDS011;9764;48.114;11.670;2022-12-10T00:51:40;3.70;;;2.60;;
19260;SDS011;9764;48.114;11.670;2022-12-10T00:54:10;2.88;;;2.58;;
19260;SDS011;9764;48.114;11.670;2022-12-10T00:56:39;3.00;;;2.70;;
19260;SDS011;9764;48.114;11.670;2022-12-10T00:59:09;4.70;;;3.40;;
19260;SDS011;9764;48.114;11.670;2022-12-10T01:01:38;3.72;;;2.58;;
19260;SDS011;9764;48.114;11.670;2022-12-10T01:04:09;3.15;;;2.50;;
19260;SDS011;9764;48.114;11.670;2022-12-10T01:06:41;3.63;;;2.90;;
19260;SDS011;9764;48.114;11.670;2022-12-10T01:09:11;3.00;;;2.70;;
19260;SDS011;9764;48.114;11.670;2022-12-10T01:11:44;2.83;;;2.60;;
19260;SDS011;9764;48.114;11.670;2022-12-10T01:14:17;2.92;;;2.28;;
19260;SDS011;9764;48.114;11.670;2022-12-10T01:16:47;3.42;;;2.50;;
19260;SDS011;9764;48.114;11.670;2022-12-10T01:19:16;3.00;;;2.65;;
19260;SDS011;9764;48.114;11.670;2022-12-10T01:21:44;3.45;;;2.80;;
19260;SDS011;9764;48.114;11.670;2022-12-10T01:24:12;3.55;;;2.67;;
19260;SDS011;9764;48.114;11.670;2022-12-10T01:26:43;3.40;;;2.70;;
19260;SDS011;9764;48.114;11.670;2022-12-10T01:29:11;3.00;;;2.70;;
19260;SDS011;9764;48.114;11.670;2022-12-10T01:31:41;3.20;;;2.90;;
19260;SDS011;9764;48.114;11.670;2022-12-10T01:34:11;2.97;;;2.53;;
19260;SDS011;9764;48.114;11.670;2022-12-10T01:36:41;4.05;;;3.30;;
19260;SDS011;9764;48.114;11.670;2022-12-10T01:39:11;3.28;;;2.97;;
19260;SDS011;9764;48.114;11.670;2022-12-10T01:41:41;3.25;;;2.95;;
19260;SDS011;9764;48.114;11.670;2022-12-10T01:47:18;3.58;;;2.85;;
19260;SDS011;9764;48.114;11.670;2022-12-10T01:49:46;3.53;;;2.88;;
19260;SDS011;9764;48.114;11.670;2022-12-10T01:52:14;3.10;;;2.80;;
19260;SDS011;9764;48.114;11.670;2022-12-10T01:54:47;2.47;;;2.28;;
19260;SDS011;9764;48.114;11.670;2022-12-10T01:57:16;2.85;;;2.55;;
19260;SDS011;9764;48.114;11.670;2022-12-10T01:59:48;4.03;;;2.60;;
19260;SDS011;9764;48.114;11.670;2022-12-10T02:02:22;3.92;;;2.63;;
19260;SDS011;9764;48.114;11.670;2022-12-10T02:05:10;3.45;;;2.60;;
19260;SDS011;9764;48.114;11.670;2022-12-10T02:07:54;3.80;;;3.03;;
19260;SDS011;9764;48.114;11.670;2022-12-10T02:10:32;3.33;;;2.78;;
19260;SDS011;9764;48.114;11.670;2022-12-10T02:13:10;3.17;;;2.65;;
19260;SDS011;9764;48.114;11.670;2022-12-10T02:15:44;4.60;;;3.20;;
19260;SDS011;9764;48.114;11.670;2022-12-10T02:18:19;2.95;;;2.63;;
19260;SDS011;9764;48.114;11.670;2022-12-10T02:20:52;3.15;;;2.67;;
19260;SDS011;9764;48.114;11.670;2022-12-10T02:23:25;3.28;;;2.97;;
19260;SDS011;9764;48.114;11.670;2022-12-10T02:25:57;3.40;;;3.10;;
19260;SDS011;9764;48.114;11.670;2022-12-10T02:28:31;3.53;;;3.17;;
19260;SDS011;9764;48.114;11.670;2022-12-10T02:31:14;3.03;;;2.60;;
19260;SDS011;9764;48.114;11.670;2022-12-10T02:33:47;3.85;;;2.95;;
19260;SDS011;9764;48.114;11.670;2022-12-10T02:36:19;3.65;;;2.72;;
19260;SDS011;9764;48.114;11.670;2022-12-10T02:38:49;3.20;;;2.75;;
19260;SDS011;9764;48.114;11.670;2022-12-10T02:41:22;4.13;;;3.35;;
19260;SDS011;9764;48.114;11.670;2022-12-10T02:43:57;3.72;;;3.00;;
19260;SDS011;9764;48.114;11.670;2022-12-10T02:46:33;3.20;;;2.70;;
19260;SDS011;9764;48.114;11.670;2022-12-10T02:49:05;3.67;;;2.78;;
19260;SDS011;9764;48.114;11.670;2022-12-10T02:51:36;3.63;;;2.90;;
19260;SDS011;9764;48.114;11.670;2022-12-10T02:54:05;3.05;;;2.78;;
19260;SDS011;9764;48.114;11.670;2022-12-10T02:56:54;3.15;;;2.85;;
19260;SDS011;9764;48.114;11.670;2022-12-10T02:59:28;3.67;;;3.35;;
19260;SDS011;9764;48.114;11.670;2022-12-10T03:02:08;3.35;;;2.70;;
19260;SDS011;9764;48.114;11.670;2022-12-10T03:04:44;2.97;;;2.65;;
19260;SDS011;9764;48.114;11.670;2022-12-10T03:07:18;3.72;;;3.05;;
19260;SDS011;9764;48.114;11.670;2022-12-10T03:09:57;4.07;;;3.22;;
19260;SDS011;9764;48.114;11.670;2022-12-10T03:12:29;3.28;;;2.80;;
19260;SDS011;9764;48.114;11.670;2022-12-10T03:15:03;3.45;;;2.97;;
19260;SDS011;9764;48.114;11.670;2022-12-10T03:17:37;4.32;;;3.17;;
19260;SDS011;9764;48.114;11.670;2022-12-10T03:20:08;3.25;;;2.63;;
19260;SDS011;9764;48.114;11.670;2022-12-10T03:22:41;3.10;;;2.80;;
19260;SDS011;9764;48.114;11.670;2022-12-10T03:25:12;3.65;;;2.88;;
19260;SDS011;9764;48.114;11.670;2022-12-10T03:27:43;3.13;;;2.83;;
19260;SDS011;9764;48.114;11.670;2022-12-10T03:30:13;3.53;;;2.90;;
19260;SDS011;9764;48.114;11.670;2022-12-10T03:32:43;3.38;;;2.83;;
19260;SDS011;9764;48.114;11.670;2022-12-10T03:35:13;4.85;;;3.40;;
19260;SDS011;9764;48.114;11.670;2022-12-10T03:37:43;4.90;;;2.92;;
19260;SDS011;9764;48.114;11.670;2022-12-10T03:40:11;5.32;;;3.00;;
19260;SDS011;9764;48.114;11.670;2022-12-10T03:42:40;3.80;;;3.05;;
19260;SDS011;9764;48.114;11.670;2022-12-10T03:45:09;3.92;;;3.45;;
19260;SDS011;9764;48.114;11.670;2022-12-10T03:47:38;4.70;;;3.22;;
19260;SDS011;9764;48.114;11.670;2022-12-10T03:50:08;5.93;;;3.40;;
19260;SDS011;9764;48.114;11.670;2022-12-10T03:52:37;4.55;;;3.28;;
19260;SDS011;9764;48.114;11.670;2022-12-10T03:55:05;5.57;;;3.38;;
19260;SDS011;9764;48.114;11.670;2022-12-10T03:57:35;3.97;;;2.92;;
19260;SDS011;9764;48.114;11.670;2022-12-10T04:00:04;5.45;;;3.60;;
19260;SDS011;9764;48.114;11.670;2022-12-10T04:02:40;4.90;;;3.47;;
19260;SDS011;9764;48.114;11.670;2022-12-10T04:05:10;4.55;;;3.33;;
19260;SDS011;9764;48.114;11.670;2022-12-10T04:07:38;4.68;;;3.33;;
19260;SDS011;9764;48.114;11.670;2022-12-10T04:10:07;4.60;;;3.72;;
19260;SDS011;9764;48.114;11.670;2022-12-10T04:12:36;7.20;;;4.13;;
19260;SDS011;9764;48.114;11.670;2022-12-10T04:15:05;5.70;;;3.97;;
19260;SDS011;9764;48.114;11.670;2022-12-10T04:17:57;5.43;;;4.05;;
19260;SDS011;9764;48.114;11.670;2022-12-10T04:20:27;6.93;;;5.03;;
19260;SDS011;9764;48.114;11.670;2022-12-10T04:23:13;5.75;;;4.28;;
19260;SDS011;9764;48.114;11.670;2022-12-10T04:25:58;7.22;;;4.82;;
19260;SDS011;9764;48.114;11.670;2022-12-10T04:28:41;5.30;;;4.05;;
19260;SDS011;9764;48.114;11.670;2022-12-10T04:31:10;6.15;;;4.18;;
19260;SDS011;9764;48.114;11.670;2022-12-10T04:33:38;6.00;;;4.35;;
19260;SDS011;9764;48.114;11.670;2022-12-10T04:36:08;4.75;;;3.90;;
19260;SDS011;9764;48.114;11.670;2022-12-10T04:38:36;5.22;;;4.57;;
19260;SDS011;9764;48.114;11.670;2022-12-10T04:41:05;5.63;;;4.18;;
19260;SDS011;9764;48.114;11.670;2022-12-10T04:43:45;5.10;;;4.20;;
19260;SDS011;9764;48.114;11.670;2022-12-10T04:46:13;7.43;;;4.90;;
19260;SDS011;9764;48.114;11.670;2022-12-10T04:48:42;5.70;;;4.20;;
19260;SDS011;9764;48.114;11.670;2022-12-10T04:51:11;6.45;;;4.57;;
19260;SDS011;9764;48.114;11.670;2022-12-10T04:53:39;12.13;;;4.25;;
19260;SDS011;9764;48.114;11.670;2022-12-10T04:56:08;8.23;;;4.00;;
19260;SDS011;9764;48.114;11.670;2022-12-10T04:58:36;4.97;;;4.15;;
19260;SDS011;9764;48.114;11.670;2022-12-10T05:01:05;8.55;;;4.40;;
19260;SDS011;9764;48.114;11.670;2022-12-10T05:03:34;6.90;;;4.47;;
19260;SDS011;9764;48.114;11.670;2022-12-10T05:06:03;8.00;;;5.00;;
19260;SDS011;9764;48.114;11.670;2022-12-10T05:08:34;4.47;;;4.03;;
19260;SDS011;9764;48.114;11.670;2022-12-10T05:11:04;5.55;;;3.58;;
19260;SDS011;9764;48.114;11.670;2022-12-10T05:13:34;5.18;;;3.83;;
19260;SDS011;9764;48.114;11.670;2022-12-10T05:16:03;5.30;;;3.97;;
19260;SDS011;9764;48.114;11.670;2022-12-10T05:18:33;6.07;;;3.80;;
19260;SDS011;9764;48.114;11.670;2022-12-10T05:21:01;7.68;;;3.85;;
19260;SDS011;9764;48.114;11.670;2022-12-10T05:23:31;6.03;;;4.78;;
19260;SDS011;9764;48.114;11.670;2022-12-10T05:26:02;4.97;;;3.90;;
19260;SDS011;9764;48.114;11.670;2022-12-10T05:28:33;4.60;;;3.72;;
19260;SDS011;9764;48.114;11.670;2022-12-10T05:31:03;5.07;;;3.80;;
19260;SDS011;9764;48.114;11.670;2022-12-10T05:33:32;5.05;;;3.90;;
19260;SDS011;9764;48.114;11.670;2022-12-10T05:36:01;7.75;;;4.00;;
19260;SDS011;9764;48.114;11.670;2022-12-10T05:38:31;6.05;;;4.00;;
19260;SDS011;9764;48.114;11.670;2022-12-10T05:41:03;5.75;;;3.75;;
19260;SDS011;9764;48.114;11.670;2022-12-10T05:43:32;4.60;;;3.08;;
19260;SDS011;9764;48.114;11.670;2022-12-10T05:46:01;5.57;;;4.10;;
19260;SDS011;9764;48.114;11.670;2022-12-10T05:48:30;7.05;;;3.55;;
19260;SDS011;9764;48.114;11.670;2022-12-10T05:51:02;5.13;;;3.67;;
19260;SDS011;9764;48.114;11.670;2022-12-10T05:53:31;5.07;;;3.63;;
19260;SDS011;9764;48.114;11.670;2022-12-10T05:56:00;4.55;;;3.28;;
19260;SDS011;9764;48.114;11.670;2022-12-10T05:58:30;5.53;;;3.50;;
19260;SDS011;9764;48.114;11.670;2022-12-10T06:00:59;5.15;;;3.97;;
19260;SDS011;9764;48.114;11.670;2022-12-10T06:03:33;4.38;;;3.45;;
19260;SDS011;9764;48.114;11.670;2022-12-10T06:06:02;4.32;;;3.40;;
19260;SDS011;9764;48.114;11.670;2022-12-10T06:08:30;4.97;;;3.50;;
19260;SDS011;9764;48.114;11.670;2022-12-10T06:11:00;6.90;;;3.45;;
19260;SDS011;9764;48.114;11.670;2022-12-10T06:13:29;6.10;;;3.53;;
19260;SDS011;9764;48.114;11.670;2022-12-10T06:15:59;6.00;;;3.17;;
19260;SDS011;9764;48.114;11.670;2022-12-10T06:18:32;4.03;;;2.80;;
19260;SDS011;9764;48.114;11.670;2022-12-10T06:21:02;4.38;;;3.30;;
19260;SDS011;9764;48.114;11.670;2022-12-10T06:23:31;3.80;;;3.40;;
19260;SDS011;9764;48.114;11.670;2022-12-10T06:26:02;4.03;;;3.55;;
19260;SDS011;9764;48.114;11.670;2022-12-10T06:28:33;4.07;;;3.00;;
19260;SDS011;9764;48.114;11.670;2022-12-10T06:31:02;4.30;;;3.38;;
19260;SDS011;9764;48.114;11.670;2022-12-10T06:33:31;5.32;;;3.58;;
19260;SDS011;9764;48.114;11.670;2022-12-10T06:36:02;4.22;;;3.35;;
19260;SDS011;9764;48.114;11.670;2022-12-10T06:38:31;3.88;;;3.22;;
19260;SDS011;9764;48.114;11.670;2022-12-10T06:41:01;3.45;;;3.10;;
19260;SDS011;9764;48.114;11.670;2022-12-10T06:43:34;5.28;;;3.83;;
19260;SDS011;9764;48.114;11.670;2022-12-10T06:46:03;4.00;;;3.17;;
19260;SDS011;9764;48.114;11.670;2022-12-10T06:48:33;4.38;;;3.90;;
19260;SDS011;9764;48.114;11.670;2022-12-10T06:51:03;7.22;;;3.33;;
19260;SDS011;9764;48.114;11.670;2022-12-10T06:53:32;4.03;;;3.38;;
19260;SDS011;9764;48.114;11.670;2022-12-10T06:56:02;4.88;;;3.00;;
19260;SDS011;9764;48.114;11.670;2022-12-10T06:58:34;4.05;;;2.97;;
19260;SDS011;9764;48.114;11.670;2022-12-10T07:01:03;3.17;;;2.85;;
19260;SDS011;9764;48.114;11.670;2022-12-10T07:03:32;4.75;;;3.38;;
19260;SDS011;9764;48.114;11.670;2022-12-10T07:06:01;5.95;;;3.58;;
19260;SDS011;9764;48.114;11.670;2022-12-10T07:08:31;4.55;;;3.45;;
19260;SDS011;9764;48.114;11.670;2022-12-10T07:11:02;3.70;;;3.30;;
19260;SDS011;9764;48.114;11.670;2022-12-10T07:13:31;5.80;;;3.90;;
19260;SDS011;9764;48.114;11.670;2022-12-10T07:16:01;4.93;;;3.20;;
19260;SDS011;9764;48.114;11.670;2022-12-10T07:18:29;3.53;;;2.80;;
19260;SDS011;9764;48.114;11.670;2022-12-10T07:20:58;3.60;;;2.97;;
19260;SDS011;9764;48.114;11.670;2022-12-10T07:23:26;3.85;;;2.67;;
19260;SDS011;9764;48.114;11.670;2022-12-10T07:25:55;3.70;;;3.40;;
19260;SDS011;9764;48.114;11.670;2022-12-10T07:28:23;4.55;;;3.28;;
19260;SDS011;9764;48.114;11.670;2022-12-10T07:30:51;4.28;;;3.22;;
19260;SDS011;9764;48.114;11.670;2022-12-10T07:33:28;6.55;;;4.25;;
19260;SDS011;9764;48.114;11.670;2022-12-10T07:35:57;3.15;;;2.85;;
19260;SDS011;9764;48.114;11.670;2022-12-10T07:38:25;3.30;;;3.00;;
19260;SDS011;9764;48.114;11.670;2022-12-10T07:40:53;3.28;;;2.97;;
19260;SDS011;9764;48.114;11.670;2022-12-10T07:43:22;4.13;;;3.28;;
19260;SDS011;9764;48.114;11.670;2022-12-10T07:45:53;3.83;;;3.30;;
19260;SDS011;9764;48.114;11.670;2022-12-10T07:48:21;3.70;;;3.00;;
19260;SDS011;9764;48.114;11.670;2022-12-10T07:50:56;3.85;;;3.15;;
19260;SDS011;9764;48.114;11.670;2022-12-10T07:53:25;3.53;;;3.10;;
19260;SDS011;9764;48.114;11.670;2022-12-10T07:55:53;3.08;;;2.78;;
19260;SDS011;9764;48.114;11.670;2022-12-10T07:58:21;4.10;;;3.20;;
19260;SDS011;9764;48.114;11.670;2022-12-10T08:00:50;4.72;;;3.20;;
19260;SDS011;9764;48.114;11.670;2022-12-10T08:03:19;4.18;;;3.10;;
19260;SDS011;9764;48.114;11.670;2022-12-10T08:05:47;3.90;;;3.25;;
19260;SDS011;9764;48.114;11.670;2022-12-10T08:08:17;3.70;;;3.38;;
19260;SDS011;9764;48.114;11.670;2022-12-10T08:10:45;3.60;;;2.92;;
19260;SDS011;9764;48.114;11.670;2022-12-10T08:13:13;3.40;;;3.10;;
19260;SDS011;9764;48.114;11.670;2022-12-10T08:15:42;3.45;;;3.10;;
19260;SDS011;9764;48.114;11.670;2022-12-10T08:18:10;4.40;;;3.30;;
19260;SDS011;9764;48.114;11.670;2022-12-10T08:20:38;3.55;;;3.10;;
19260;SDS011;9764;48.114;11.670;2022-12-10T08:23:07;3.67;;;3.20;;
19260;SDS011;9764;48.114;11.670;2022-12-10T08:25:37;3.58;;;3.25;;
19260;SDS011;9764;48.114;11.670;2022-12-10T08:28:06;4.35;;;3.00;;
19260;SDS011;9764;48.114;11.670;2022-12-10T08:30:35;3.58;;;3.00;;
19260;SDS011;9764;48.114;11.670;2022-12-10T08:33:04;3.13;;;2.80;;
19260;SDS011;9764;48.114;11.670;2022-12-10T08:35:32;3.50;;;3.17;;
19260;SDS011;9764;48.114;11.670;2022-12-10T08:38:01;4.07;;;3.00;;
19260;SDS011;9764;48.114;11.670;2022-12-10T08:40:40;3.88;;;3.20;;
19260;SDS011;9764;48.114;11.670;2022-12-10T08:43:09;3.70;;;3.25;;
19260;SDS011;9764;48.114;11.670;2022-12-10T08:45:37;3.85;;;3.40;;
19260;SDS011;9764;48.114;11.670;2022-12-10T08:48:05;3.83;;;3.40;;
19260;SDS011;9764;48.114;11.670;2022-12-10T08:50:34;4.40;;;3.42;;
19260;SDS011;9764;48.114;11.670;2022-12-10T08:53:03;4.07;;;3.28;;
19260;SDS011;9764;48.114;11.670;2022-12-10T08:55:32;4.15;;;3.20;;
19260;SDS011;9764;48.114;11.670;2022-12-10T08:58:01;3.70;;;3.28;;
19260;SDS011;9764;48.114;11.670;2022-12-10T09:00:30;3.03;;;2.72;;
19260;SDS011;9764;48.114;11.670;2022-12-10T09:02:58;4.10;;;3.40;;
19260;SDS011;9764;48.114;11.670;2022-12-10T09:05:26;3.88;;;3.28;;
19260;SDS011;9764;48.114;11.670;2022-12-10T09:07:57;4.30;;;3.20;;
19260;SDS011;9764;48.114;11.670;2022-12-10T09:10:25;3.67;;;3.35;;
19260;SDS011;9764;48.114;11.670;2022-12-10T09:12:54;3.40;;;3.08;;
19260;SDS011;9764;48.114;11.670;2022-12-10T09:15:30;3.97;;;3.13;;
19260;SDS011;9764;48.114;11.670;2022-12-10T09:17:58;3.53;;;3.20;;
19260;SDS011;9764;48.114;11.670;2022-12-10T09:20:26;3.50;;;3.03;;
19260;SDS011;9764;48.114;11.670;2022-12-10T09:22:55;3.28;;;2.97;;
19260;SDS011;9764;48.114;11.670;2022-12-10T09:25:23;3.50;;;3.17;;
19260;SDS011;9764;48.114;11.670;2022-12-10T09:27:52;3.30;;;3.00;;
19260;SDS011;9764;48.114;11.670;2022-12-10T09:30:21;3.45;;;3.10;;
19260;SDS011;9764;48.114;11.670;2022-12-10T09:32:51;4.47;;;3.05;;
19260;SDS011;9764;48.114;11.670;2022-12-10T09:35:20;3.40;;;3.10;;
19260;SDS011;9764;48.114;11.670;2022-12-10T09:37:48;3.45;;;3.10;;
19260;SDS011;9764;48.114;11.670;2022-12-10T09:40:17;3.60;;;3.15;;
19260;SDS011;9764;48.114;11.670;2022-12-10T09:42:49;3.75;;;3.45;;
19260;SDS011;9764;48.114;11.670;2022-12-10T09:45:26;3.40;;;3.10;;
19260;SDS011;9764;48.114;11.670;2022-12-10T09:48:02;3.67;;;3.28;;
19260;SDS011;9764;48.114;11.670;2022-12-10T09:50:44;3.42;;;2.88;;
19260;SDS011;9764;48.114;11.670;2022-12-10T09:53:21;3.70;;;2.83;;
19260;SDS011;9764;48.114;11.670;2022-12-10T09:55:51;2.92;;;2.60;;
19260;SDS011;9764;48.114;11.670;2022-12-10T09:58:20;3.88;;;3.17;;
19260;SDS011;9764;48.114;11.670;2022-12-10T10:00:57;3.30;;;3.00;;
19260;SDS011;9764;48.114;11.670;2022-12-10T10:03:37;3.58;;;3.28;;
19260;SDS011;9764;48.114;11.670;2022-12-10T10:06:08;3.70;;;3.30;;
19260;SDS011;9764;48.114;11.670;2022-12-10T10:08:39;3.22;;;2.95;;
19260;SDS011;9764;48.114;11.670;2022-12-10T10:11:10;3.22;;;2.92;;
19260;SDS011;9764;48.114;11.670;2022-12-10T10:13:42;3.47;;;3.03;;
19260;SDS011;9764;48.114;11.670;2022-12-10T10:16:18;3.60;;;3.05;;
19260;SDS011;9764;48.114;11.670;2022-12-10T10:18:53;3.40;;;3.03;;
19260;SDS011;9764;48.114;11.670;2022-12-10T10:21:25;3.40;;;3.10;;
19260;SDS011;9764;48.114;11.670;2022-12-10T10:23:56;3.22;;;2.85;;
19260;SDS011;9764;48.114;11.670;2022-12-10T10:26:32;3.47;;;3.17;;
19260;SDS011;9764;48.114;11.670;2022-12-10T10:29:01;2.50;;;2.30;;
19260;SDS011;9764;48.114;11.670;2022-12-10T10:31:33;3.42;;;3.13;;
19260;SDS011;9764;48.114;11.670;2022-12-10T10:34:05;3.30;;;3.00;;
19260;SDS011;9764;48.114;11.670;2022-12-10T10:36:40;3.33;;;3.03;;
19260;SDS011;9764;48.114;11.670;2022-12-10T10:39:09;3.47;;;2.90;;
19260;SDS011;9764;48.114;11.670;2022-12-10T10:41:49;3.65;;;3.35;;
19260;SDS011;9764;48.114;11.670;2022-12-10T10:44:34;3.55;;;3.25;;
19260;SDS011;9764;48.114;11.670;2022-12-10T10:47:23;3.10;;;2.80;;
19260;SDS011;9764;48.114;11.670;2022-12-10T10:50:01;3.33;;;3.00;;
19260;SDS011;9764;48.114;11.670;2022-12-10T10:52:35;3.85;;;3.45;;
19260;SDS011;9764;48.114;11.670;2022-12-10T10:55:08;3.10;;;2.90;;
19260;SDS011;9764;48.114;11.670;2022-12-10T10:58:02;3.35;;;2.90;;
19260;SDS011;9764;48.114;11.670;2022-12-10T11:00:30;3.28;;;3.00;;
19260;SDS011;9764;48.114;11.670;2022-12-10T11:02:58;3.00;;;2.80;;
19260;SDS011;9764;48.114;11.670;2022-12-10T11:05:29;4.68;;;3.42;;
19260;SDS011;9764;48.114;11.670;2022-12-10T11:08:08;3.50;;;3.20;;
19260;SDS011;9764;48.114;11.670;2022-12-10T11:10:47;2.83;;;2.53;;
19260;SDS011;9764;48.114;11.670;2022-12-10T11:13:23;3.42;;;2.97;;
19260;SDS011;9764;48.114;11.670;2022-12-10T11:15:56;3.55;;;3.22;;
19260;SDS011;9764;48.114;11.670;2022-12-10T11:18:30;4.45;;;3.30;;
19260;SDS011;9764;48.114;11.670;2022-12-10T11:21:02;3.75;;;2.90;;
19260;SDS011;9764;48.114;11.670;2022-12-10T11:23:36;3.33;;;3.03;;
19260;SDS011;9764;48.114;11.670;2022-12-10T11:26:09;5.55;;;3.42;;
19260;SDS011;9764;48.114;11.670;2022-12-10T11:28:51;3.00;;;2.80;;
19260;SDS011;9764;48.114;11.670;2022-12-10T11:31:37;4.20;;;3.13;;
19260;SDS011;9764;48.114;11.670;2022-12-10T11:34:16;2.90;;;2.70;;
19260;SDS011;9764;48.114;11.670;2022-12-10T11:36:51;3.20;;;2.85;;
19260;SDS011;9764;48.114;11.670;2022-12-10T11:39:37;3.78;;;3.20;;
19260;SDS011;9764;48.114;11.670;2022-12-10T11:42:26;3.72;;;2.88;;
19260;SDS011;9764;48.114;11.670;2022-12-10T11:45:07;2.70;;;2.50;;
19260;SDS011;9764;48.114;11.670;2022-12-10T11:47:47;3.22;;;2.92;;
19260;SDS011;9764;48.114;11.670;2022-12-10T11:50:33;3.15;;;2.85;;
19260;SDS011;9764;48.114;11.670;2022-12-10T11:56:07;4.05;;;3.00;;
19260;SDS011;9764;48.114;11.670;2022-12-10T11:58:57;4.72;;;3.25;;
19260;SDS011;9764;48.114;11.670;2022-12-10T12:01:35;2.90;;;2.60;;
19260;SDS011;9764;48.114;11.670;2022-12-10T12:04:21;3.97;;;2.90;;
19260;SDS011;9764;48.114;11.670;2022-12-10T12:06:58;4.95;;;3.10;;
19260;SDS011;9764;48.114;11.670;2022-12-10T12:09:48;2.92;;;2.70;;
19260;SDS011;9764;48.114;11.670;2022-12-10T12:12:27;3.40;;;3.10;;
19260;SDS011;9764;48.114;11.670;2022-12-10T12:15:11;3.13;;;2.83;;
19260;SDS011;9764;48.114;11.670;2022-12-10T12:17:45;3.20;;;2.90;;
19260;SDS011;9764;48.114;11.670;2022-12-10T12:20:17;3.47;;;2.70;;
19260;SDS011;9764;48.114;11.670;2022-12-10T12:22:51;2.50;;;2.30;;
19260;SDS011;9764;48.114;11.670;2022-12-10T12:25:26;3.25;;;2.65;;
19260;SDS011;9764;48.114;11.670;2022-12-10T12:28:00;3.15;;;2.70;;
19260;SDS011;9764;48.114;11.670;2022-12-10T12:30:33;2.88;;;2.60;;
19260;SDS011;9764;48.114;11.670;2022-12-10T12:33:04;4.68;;;2.72;;
19260;SDS011;9764;48.114;11.670;2022-12-10T12:35:38;3.75;;;2.58;;
19260;SDS011;9764;48.114;11.670;2022-12-10T12:38:19;14.02;;;3.67;;
19260;SDS011;9764;48.114;11.670;2022-12-10T12:40:56;10.18;;;3.15;;
19260;SDS011;9764;48.114;11.670;2022-12-10T12:43:31;27.00;;;4.30;;
19260;SDS011;9764;48.114;11.670;2022-12-10T12:46:09;21.85;;;4.40;;
19260;SDS011;9764;48.114;11.670;2022-12-10T12:48:44;15.18;;;4.03;;
19260;SDS011;9764;48.114;11.670;2022-12-10T12:51:21;21.35;;;4.00;;
19260;SDS011;9764;48.114;11.670;2022-12-10T12:53:54;23.38;;;4.78;;
19260;SDS011;9764;48.114;11.670;2022-12-10T12:56:26;11.35;;;3.85;;
19260;SDS011;9764;48.114;11.670;2022-12-10T12:59:10;18.45;;;4.45;;
19260;SDS011;9764;48.114;11.670;2022-12-10T13:01:47;15.30;;;3.60;;
19260;SDS011;9764;48.114;11.670;2022-12-10T13:04:21;19.63;;;4.07;;
19260;SDS011;9764;48.114;11.670;2022-12-10T13:09:42;14.68;;;4.15;;
19260;SDS011;9764;48.114;11.670;2022-12-10T13:12:26;7.38;;;3.60;;
19260;SDS011;9764;48.114;11.670;2022-12-10T13:15:01;15.77;;;3.72;;
19260;SDS011;9764;48.114;11.670;2022-12-10T13:18:00;9.27;;;3.40;;
19260;SDS011;9764;48.114;11.670;2022-12-10T13:20:32;9.07;;;3.58;;
19260;SDS011;9764;48.114;11.670;2022-12-10T13:23:03;9.10;;;3.40;;
19260;SDS011;9764;48.114;11.670;2022-12-10T13:25:56;7.10;;;2.88;;
19260;SDS011;9764;48.114;11.670;2022-12-10T13:28:30;12.95;;;4.05;;
19260;SDS011;9764;48.114;11.670;2022-12-10T13:31:21;9.13;;;3.13;;
19260;SDS011;9764;48.114;11.670;2022-12-10T13:34:19;13.52;;;3.58;;
19260;SDS011;9764;48.114;11.670;2022-12-10T13:37:04;13.00;;;3.05;;
19260;SDS011;9764;48.114;11.670;2022-12-10T13:39:45;14.20;;;3.53;;
19260;SDS011;9764;48.114;11.670;2022-12-10T13:42:26;13.68;;;3.35;;
19260;SDS011;9764;48.114;11.670;2022-12-10T13:51:17;13.27;;;3.55;;
19260;SDS011;9764;48.114;11.670;2022-12-10T13:54:04;10.35;;;3.55;;
19260;SDS011;9764;48.114;11.670;2022-12-10T13:56:55;11.27;;;2.97;;
19260;SDS011;9764;48.114;11.670;2022-12-10T13:59:36;6.20;;;3.03;;
19260;SDS011;9764;48.114;11.670;2022-12-10T14:02:27;7.97;;;3.50;;
19260;SDS011;9764;48.114;11.670;2022-12-10T14:05:27;10.15;;;3.67;;
19260;SDS011;9764;48.114;11.670;2022-12-10T14:08:16;9.27;;;3.25;;
19260;SDS011;9764;48.114;11.670;2022-12-10T14:10:47;8.63;;;3.28;;
19260;SDS011;9764;48.114;11.670;2022-12-10T14:13:18;10.52;;;3.08;;
19260;SDS011;9764;48.114;11.670;2022-12-10T14:15:53;14.15;;;3.28;;
19260;SDS011;9764;48.114;11.670;2022-12-10T14:18:24;9.75;;;3.00;;
19260;SDS011;9764;48.114;11.670;2022-12-10T14:20:56;8.80;;;2.90;;
19260;SDS011;9764;48.114;11.670;2022-12-10T14:23:30;6.82;;;2.80;;
19260;SDS011;9764;48.114;11.670;2022-12-10T14:26:03;4.70;;;2.70;;
19260;SDS011;9764;48.114;11.670;2022-12-10T14:28:37;5.28;;;2.70;;
19260;SDS011;9764;48.114;11.670;2022-12-10T14:31:10;7.75;;;2.92;;
19260;SDS011;9764;48.114;11.670;2022-12-10T14:33:45;6.63;;;3.05;;
19260;SDS011;9764;48.114;11.670;2022-12-10T14:36:16;6.82;;;2.72;;
19260;SDS011;9764;48.114;11.670;2022-12-10T14:38:49;8.55;;;3.10;;
19260;SDS011;9764;48.114;11.670;2022-12-10T14:41:19;6.35;;;3.00;;
19260;SDS011;9764;48.114;11.670;2022-12-10T14:43:50;6.60;;;2.40;;
19260;SDS011;9764;48.114;11.670;2022-12-10T14:46:23;12.32;;;3.00;;
19260;SDS011;9764;48.114;11.670;2022-12-10T14:48:54;5.28;;;2.80;;
19260;SDS011;9764;48.114;11.670;2022-12-10T14:51:23;4.43;;;2.92;;
19260;SDS011;9764;48.114;11.670;2022-12-10T14:53:53;4.88;;;2.35;;
19260;SDS011;9764;48.114;11.670;2022-12-10T14:56:24;5.05;;;2.40;;
19260;SDS011;9764;48.114;11.670;2022-12-10T14:58:56;3.72;;;2.30;;
19260;SDS011;9764;48.114;11.670;2022-12-10T15:01:30;3.83;;;2.83;;
19260;SDS011;9764;48.114;11.670;2022-12-10T15:04:03;7.28;;;2.75;;
19260;SDS011;9764;48.114;11.670;2022-12-10T15:06:34;8.82;;;2.72;;
19260;SDS011;9764;48.114;11.670;2022-12-10T15:09:04;9.57;;;2.60;;
19260;SDS011;9764;48.114;11.670;2022-12-10T15:11:37;4.63;;;2.72;;
19260;SDS011;9764;48.114;11.670;2022-12-10T15:14:05;6.53;;;2.47;;
19260;SDS011;9764;48.114;11.670;2022-12-10T15:16:38;7.53;;;2.67;;
19260;SDS011;9764;48.114;11.670;2022-12-10T15:19:13;6.53;;;2.67;;
19260;SDS011;9764;48.114;11.670;2022-12-10T15:21:46;3.92;;;2.70;;
19260;SDS011;9764;48.114;11.670;2022-12-10T15:24:18;3.88;;;2.47;;
19260;SDS011;9764;48.114;11.670;2022-12-10T15:26:48;6.50;;;2.38;;
19260;SDS011;9764;48.114;11.670;2022-12-10T15:29:32;4.25;;;2.63;;
19260;SDS011;9764;48.114;11.670;2022-12-10T15:32:04;5.95;;;2.70;;
19260;SDS011;9764;48.114;11.670;2022-12-10T15:34:42;4.78;;;2.60;;